Tiempo atmosférico en la estación meteorológica de Boadilla Fuente San Esteban, Salamanca (785 m.)



Fecha
DESCASC
Temp. máxima en grados centígrados (hora)
DESCASC
Temp. mínima en grados centígrados (hora)
DESCASC
Temp. media en grados centígrados
DESCASC
Racha de viento máxima en m/sg (hora)
DESCASC
Velocidad máxima media en intervalos de 10 minutos(hora)
DESCASC
Precipitaciones diarias en mm
DESCASC
Precipitaciones de 00:00 a 06:00 en mm
DESCASC
Precipitaciones de 06:00 a 12:00 en mm
DESCASC
Precipitaciones de 12:00 a 18:00 en mm
DESCASC
Precipitaciones de 18:00 a 24:00 en mm
DESCASC
18-02-2018 10.7 (16:20) -1.7 (08:20) 4.5 11.11 (16:30) 7.78 (16:00) 0 0 0 0 0
17-02-2018 11.7 (15:50) 3.1 (03:10) 7.4 8.89 (17:00) 6.39 (17:00) 0 0 0 0 0
16-02-2018 13.1 (15:50) 5.2 (06:30) 9.2 7.5 (17:30) 5 (17:00) 0 0 0 0 0
15-02-2018 13.3 (14:40) 7.3 (00:00) 10.3 8.61 (00:20) 5.28 (11:10) 0 0 0 0 0
14-02-2018 8.5 (15:50) 5.4 (00:00) 7 11.11 (12:30) 7.22 (13:00) 0.4 0.2 0 0.2 0
13-02-2018 8.1 (17:30) -1.5 (-00:0) 3.3 14.44 (13:20) 8.89 (13:10) 0 0 0 0 0
12-02-2018 7.8 (15:50) -1.1 (-00:0) 3.4 7.22 (14:30) 5 (16:20) 0.4 0.4 0 0 0
11-02-2018 10.9 (15:20) 3 (00:00) 6.9 9.72 (17:50) 5.56 (15:30) 1.2 0 0 0 1.2
10-02-2018 8 (16:40) -3.6 (-00:0) 2.2 6.11 (16:30) 3.61 (17:20) 0 0 0 0 0
09-02-2018 5.3 (17:40) -2.6 (-00:0) 1.4 5.56 (14:40) 3.33 (01:40) 1.4 0 1.2 0 0.2
08-02-2018 4 (16:00) -5.3 (-00:0) -0.7 7.22 (12:30) 4.72 (13:00) 0 0 0 0 0
07-02-2018 3.9 (15:10) -6 (-00:0) -1 8.89 (16:50) 5.83 (12:40) 0 0 0 0 0
06-02-2018 3.8 (15:10) -4.9 (-00:0) -0.6 11.11 (14:50) 7.5 (15:00) 0.4 0 0.4 0 0
05-02-2018 4.8 (17:00) -2.2 (-00:0) 1.3 13.06 (13:00) 9.44 (13:00) 0 0 0 0 0
04-02-2018 5.3 (15:50) -1.9 (-00:0) 1.7 9.17 (16:10) 6.39 (16:10) 0.2 0 0.2 0 0
03-02-2018 6.6 (15:30) -3.6 (-00:0) 1.5 8.33 (22:50) 5 (19:00) 0.6 0 0 0.2 0.4
02-02-2018 6.2 (17:10) -4.6 (-00:0) 0.8 9.17 (14:20) 5 (14:10) 0 0 0 0 0
01-02-2018 8 (16:10) -1.2 (-00:0) 3.4 12.5 (15:20) 8.89 (15:20) 0.2 0 0 0 0.2
31-01-2018 13.8 (17:00) -3 (-00:0) 5.4 4.17 (23:30) 3.61 (23:30) 0 0 0 0 0
30-01-2018 13.2 (15:30) -1.7 (-00:0) 5.7 5.28 (01:20) 3.89 (17:10) 0 0 0 0 0
29-01-2018 12.6 (14:40) 0.2 (00:00) 6.4 8.33 (16:10) 6.39 (15:50) 0 0 0 0 0
28-01-2018 10.5 (17:10) -1.9 (-00:0) 4.3 12.78 (16:30) 10 (15:20) 0 0 0 0 0
27-01-2018 7.8 (15:20) -2.3 (-00:0) 2.8 10.28 (15:10) 7.78 (15:50) 0 0 0 0 0
26-01-2018 6.7 (16:00) -0.3 (00:00) 3.2 10.28 (18:00) 6.94 (18:00) 0 0 0 0 0
25-01-2018 7.1 (10:00) 1.2 (00:00) 4.1 14.17 (17:00) 7.22 (17:20) 7.8 0 4.2 3.4 0.2
24-01-2018 6 (17:10) 0.2 (00:00) 3.1 4.72 (01:10) 2.78 (01:10) 0.2 0 0.2 0 0
23-01-2018 7.1 (16:30) 0.3 (00:00) 3.7 6.94 (10:40) 5 (10:40) 0 0 0 0 0
22-01-2018 12.9 (16:40) 3.4 (00:00) 8.1 5 (07:30) 2.5 (07:10) 0 0 0 0 0

Gráficas

Temp. máximas Temp. mínimas Temp. medias Precipitaciones Rachas de viento máximas Velocidades máximas media en intervalos de 10 minutos

Datos horarios

Fecha y hora oficial Temperatura (ºC) Velocidad del viento (km/h) Dirección del viento Racha (km/h) Dirección de racha Precipitación (mm) Presión (hPa) Tendencia (hPa) Humedad (%)
2018-02-20 23:00:00 3.5 12 Nordeste 15 Nordeste 0 -- -- 83
2018-02-20 22:00:00 5 11 Este 15 Este 0 -- -- 77
2018-02-20 21:00:00 5.3 11 Este 17 Este 0 -- -- 75
2018-02-20 20:00:00 6.4 12 Nordeste 20 Nordeste 0 -- -- 69
2018-02-20 19:00:00 9.8 16 Nordeste 28 Nordeste 0 -- -- 59
2018-02-20 18:00:00 11.3 18 Nordeste 31 Nordeste 0 -- -- 55
2018-02-20 17:00:00 11.5 24 Nordeste 42 Nordeste 0 -- -- 57
2018-02-20 16:00:00 11.7 26 Nordeste 41 Nordeste 0 -- -- 56
2018-02-20 15:00:00 11.6 27 Nordeste 40 Norte 0 -- -- 58
2018-02-20 14:00:00 11.8 27 Norte 41 Nordeste 0 -- -- 54
2018-02-20 13:00:00 10.8 23 Nordeste 39 Nordeste 0 -- -- 58
2018-02-20 12:00:00 9.6 24 Nordeste 33 Nordeste 0 -- -- 64
2018-02-20 11:00:00 7.5 19 Nordeste 26 Nordeste 0 -- -- 75
2018-02-20 10:00:00 4.9 13 Este 18 Este 0 -- -- 88
2018-02-20 09:00:00 2.5 6 Este 10 Este 0 -- -- 95
2018-02-20 08:00:00 1.1 10 Este 12 Este 0 -- -- 97
2018-02-20 07:00:00 -0.1 0 Calma 6 Nordeste 0 -- -- 96
2018-02-20 06:00:00 0.5 5 Nordeste 11 Este 0 -- -- 93
2018-02-20 05:00:00 1.3 0 Calma 7 Sudeste 0 -- -- 93
2018-02-20 04:00:00 1.9 5 Sudeste 9 Sudeste 0 -- -- 95
2018-02-20 03:00:00 1.8 3 Este 8 Este 0 -- -- 89
2018-02-20 02:00:00 3.5 7 Este 14 Este 0 -- -- 87
2018-02-20 01:00:00 3.9 4 Este 14 Este 0 -- -- 84
2018-02-20 00:00:00 3.9 9 Sudeste 13 Este 0 -- -- 86
2018-02-19 23:00:00 4.2 10 Nordeste 14 Nordeste 0 -- -- 85
2018-02-19 22:00:00 4.4 7 Nordeste 9 Norte 0 -- -- 84
2018-02-19 21:00:00 5.9 4 Este 4 Este 0 -- -- 78
2018-02-19 20:00:00 7.1 4 Nordeste 9 Nordeste 0 -- -- 73
2018-02-19 19:00:00 8.8 9 Nordeste 17 Nordeste 0 -- -- 67
2018-02-19 18:00:00 10.8 14 Nordeste 22 Nordeste 0 -- -- 59
2018-02-19 17:00:00 11.6 17 Nordeste 28 Norte 0 -- -- 57
2018-02-19 16:00:00 11.3 21 Nordeste 28 Norte 0 -- -- 59
2018-02-19 15:00:00 10.7 17 Nordeste 28 Nordeste 0 -- -- 63
2018-02-19 14:00:00 10.7 17 Nordeste 25 Norte 0 -- -- 62
2018-02-19 13:00:00 9.6 15 Nordeste 22 Norte 0 -- -- 66
2018-02-19 12:00:00 8.5 9 Nordeste 15 Nordeste 0 -- -- 72
2018-02-19 11:00:00 6.7 6 Este 10 Este 0 -- -- 81
2018-02-19 10:00:00 4.5 8 Este 10 Este 0 -- -- 89
2018-02-19 09:00:00 1.7 3 Nordeste 6 Nordeste 0 -- -- 96
2018-02-19 08:00:00 1.7 2 Norte 5 Noroeste 0 -- -- 93
2018-02-19 07:00:00 2.4 2 Este 8 Este 0 -- -- 93
2018-02-19 06:00:00 2.8 3 Este 8 Este 0 -- -- 91
2018-02-19 05:00:00 3.1 0 Calma 9 Este 0 -- -- 89
2018-02-19 04:00:00 3.9 5 Este 8 Nordeste 0 -- -- 89
2018-02-19 03:00:00 4.4 4 Este 8 Este 0 -- -- 87
2018-02-19 02:00:00 4.7 4 Este 10 Este 0 -- -- 86
2018-02-19 01:00:00 4.7 6 Este 13 Nordeste 0 -- -- 85
2018-02-19 00:00:00 5 7 Este 12 Este 0 -- -- 83
2018-02-18 23:00:00 5.2 6 Este 10 Este 0 -- -- 82
2018-02-18 22:00:00 5.5 4 Este 13 Este 0 -- -- 80
2018-02-18 21:00:00 6.2 10 Este 14 Este 0 -- -- 76
2018-02-18 20:00:00 6.3 8 Nordeste 15 Nordeste 0 -- -- 72
2018-02-18 19:00:00 7.9 10 Nordeste 29 Nordeste 0 -- -- 66
2018-02-18 18:00:00 9.5 19 Nordeste 32 Nordeste 0 -- -- 61
2018-02-18 17:00:00 10.3 22 Nordeste 40 Nordeste 0 -- -- 58
2018-02-18 16:00:00 10.5 28 Nordeste 37 Nordeste 0 -- -- 56
2018-02-18 15:00:00 9.8 25 Este 32 Este 0 -- -- 55
2018-02-18 14:00:00 8.6 23 Nordeste 34 Nordeste 0 -- -- 56
2018-02-18 13:00:00 6.8 23 Nordeste 37 Nordeste 0 -- -- 66
2018-02-18 12:00:00 4.9 20 Nordeste 31 Este 0 -- -- 75
2018-02-18 11:00:00 3.9 20 Este 31 Este 0 -- -- 80
2018-02-18 10:00:00 1.2 16 Este 23 Este 0 -- -- 89
2018-02-18 09:00:00 -1.3 11 Nordeste 19 Nordeste 0 -- -- 94
2018-02-18 08:00:00 -1.5 16 Este 23 Nordeste 0 -- -- 95
2018-02-18 07:00:00 -1 15 Nordeste 21 Este 0 -- -- 94
2018-02-18 06:00:00 -0.6 15 Nordeste 21 Este 0 -- -- 94
2018-02-18 05:00:00 -0.6 10 Este 15 Este 0 -- -- 94
2018-02-18 04:00:00 0.2 13 Este 20 Este 0 -- -- 93
2018-02-18 03:00:00 1 12 Este 23 Nordeste 0 -- -- 90
2018-02-18 02:00:00 1.9 16 Nordeste 28 Nordeste 0 -- -- 87
2018-02-18 01:00:00 2.8 20 Nordeste 26 Nordeste 0 -- -- 85
2018-02-18 00:00:00 3.5 18 Nordeste 25 Nordeste 0 -- -- 84
2018-02-17 23:00:00 3.5 11 Este 17 Este 0 -- -- 90
2018-02-17 22:00:00 3.7 10 Este 12 Este 0 -- -- 89
2018-02-17 21:00:00 5.2 10 Este 18 Nordeste 0 -- -- 85
2018-02-17 20:00:00 6.9 16 Nordeste 21 Nordeste 0 -- -- 78
2018-02-17 19:00:00 8.7 17 Nordeste 28 Nordeste 0 -- -- 70
2018-02-17 18:00:00 10.1 21 Nordeste 32 Nordeste 0 -- -- 65
2018-02-17 17:00:00 11.3 23 Nordeste 32 Nordeste 0 -- -- 64
2018-02-17 16:00:00 11 21 Nordeste 30 Nordeste 0 -- -- 67
2018-02-17 15:00:00 10.9 17 Nordeste 24 Nordeste 0 -- -- 66
2018-02-17 14:00:00 9.8 16 Nordeste 23 Este 0 -- -- 77
2018-02-17 13:00:00 8.7 8 Nordeste 13 Nordeste 0 -- -- 88
2018-02-17 12:00:00 7.1 5 Norte 8 Norte 0 -- -- 100
2018-02-17 11:00:00 5.9 0 Calma 3 Norte 0 -- -- 100
2018-02-17 10:00:00 5.4 0 Calma 3 Noroeste 0 -- -- 100
2018-02-17 09:00:00 4.9 3 Noroeste 6 Sudeste 0 -- -- 100
2018-02-17 08:00:00 5 4 Sudeste 8 Sudeste 0 -- -- 100
2018-02-17 07:00:00 5.6 4 Sudeste 6 Este 0 -- -- 99
2018-02-17 06:00:00 5.2 3 Sudeste 5 Sudeste 0 -- -- 99
2018-02-17 05:00:00 5.1 3 Sur 6 Sur 0 -- -- 99
2018-02-17 04:00:00 3.3 4 Sur 5 Sur 0 -- -- 97
2018-02-17 03:00:00 3.2 3 Sudeste 12 Oeste -- -- -- 95
2018-02-17 02:00:00 5.1 4 Sur 10 Oeste 0 -- -- 93
2018-02-17 01:00:00 5.5 10 Sudeste 14 Sudeste 0 -- -- 94
2018-02-17 00:00:00 6.1 11 Sudeste 14 Sudeste 0 -- -- 93
2018-02-16 23:00:00 6.8 10 Sudeste 13 Sur 0 -- -- 91
2018-02-16 22:00:00 6.8 9 Sudeste 11 Sur 0 -- -- 92
2018-02-16 21:00:00 7.2 5 Sudoeste 13 Oeste 0 -- -- 89
2018-02-16 20:00:00 9.4 10 Oeste 21 Sudoeste 0 -- -- 84
2018-02-16 19:00:00 10.6 14 Sudoeste 23 Sudoeste 0 -- -- 81
2018-02-16 18:00:00 12 13 Sudoeste 27 Sudoeste 0 -- -- 77
2018-02-16 17:00:00 12.9 18 Sudoeste 27 Sudoeste 0 -- -- 74
2018-02-16 16:00:00 13.1 8 Oeste 14 Oeste 0 -- -- 74
2018-02-16 15:00:00 12.6 5 Noroeste 11 Norte 0 -- -- 74
2018-02-16 14:00:00 11.6 6 Noroeste 13 Oeste 0 -- -- 81
2018-02-16 13:00:00 11.1 3 Nordeste 11 Sur 0 -- -- 81
2018-02-16 12:00:00 9.9 7 Sur 13 Sudeste 0 -- -- 85
2018-02-16 11:00:00 9.2 5 Sudeste 9 Este 0 -- -- 90
2018-02-16 10:00:00 7.4 6 Sudeste 12 Sudeste 0 -- -- 97
2018-02-16 09:00:00 5.6 6 Sudeste 11 Sudeste 0 -- -- 98
2018-02-16 08:00:00 5.6 7 Sudeste 9 Sudeste 0 -- -- 97
2018-02-16 07:00:00 5.5 0 Calma 4 Sudeste 0 -- -- 97
2018-02-16 06:00:00 5.8 0 Calma 10 Sudeste 0 -- -- 95
2018-02-16 05:00:00 7.1 9 Sudeste 14 Sudeste 0 -- -- 95
2018-02-16 04:00:00 7.7 6 Sudeste 8 Sudeste 0 -- -- 94
2018-02-16 03:00:00 7.8 6 Sudeste 9 Sudeste 0 -- -- 94
2018-02-16 02:00:00 8.3 5 Sur 9 Sur 0 -- -- 92
2018-02-16 01:00:00 8.5 5 Sudoeste 10 Sur 0 -- -- 91
2018-02-16 00:00:00 9.5 7 Sur 13 Sudoeste 0 -- -- 88
2018-02-15 23:00:00 9.8 9 Sudoeste 13 Sur 0 -- -- 88
2018-02-15 22:00:00 9.8 7 Sur 14 Sudoeste 0 -- -- 88
2018-02-15 21:00:00 10.1 10 Sur 15 Sudoeste 0 -- -- 87
2018-02-15 20:00:00 10.5 8 Sudoeste 16 Sudoeste 0 -- -- 85
2018-02-15 19:00:00 11 10 Sudoeste 24 Sudoeste 0 -- -- 83
2018-02-15 18:00:00 11.8 14 Sudoeste 24 Sudoeste 0 -- -- 80
2018-02-15 17:00:00 12.4 12 Sudoeste 23 Sudoeste 0 -- -- 78
2018-02-15 16:00:00 12.7 17 Sudoeste 26 Sudoeste 0 -- -- 76
2018-02-15 15:00:00 13 15 Sudoeste 30 Sudoeste 0 -- -- 74
2018-02-15 14:00:00 13.2 18 Sudoeste 29 Sudoeste 0 -- -- 75
2018-02-15 13:00:00 12.5 17 Sudoeste 29 Sudoeste 0 -- -- 77
2018-02-15 12:00:00 12.1 18 Sudoeste 31 Sudoeste 0 -- -- 80
2018-02-15 11:00:00 10.9 17 Sudoeste 27 Sudoeste 0 -- -- 84
2018-02-15 10:00:00 9 9 Sur 22 Sudoeste 0 -- -- 90
2018-02-15 09:00:00 8.4 14 Sur 23 Sur 0 -- -- 92
2018-02-15 08:00:00 8 13 Sur 25 Sudoeste 0 -- -- 95
2018-02-15 07:00:00 7.5 10 Sur 20 Sur 0 -- -- 97
2018-02-15 06:00:00 7.5 14 Sur 23 Sur 0 -- -- 98
2018-02-15 05:00:00 8 14 Sur 27 Sur 0 -- -- 97
2018-02-15 04:00:00 8.1 13 Sur 25 Sudoeste 0 -- -- 95
2018-02-15 03:00:00 8.4 15 Sudoeste 27 Sudoeste 0 -- -- 94
2018-02-15 02:00:00 8.4 15 Sudoeste 27 Sur 0 -- -- 93
2018-02-15 01:00:00 8.2 16 Sudoeste 31 Sudoeste 0 -- -- 92
2018-02-15 00:00:00 8.4 17 Sudoeste 29 Sudoeste 0 -- -- 92
2018-02-14 23:00:00 8.4 13 Sudoeste 22 Sur 0 -- -- 91
2018-02-14 22:00:00 8.2 15 Sur 25 Sur 0 -- -- 95
2018-02-14 21:00:00 7.9 15 Sudoeste 26 Sudoeste 0 -- -- 96
2018-02-14 20:00:00 8 17 Sudoeste 29 Sudoeste 0 -- -- 95
2018-02-14 19:00:00 8.4 18 Sudoeste 31 Sudoeste 0 -- -- 90
2018-02-14 18:00:00 8.1 23 Sudoeste 37 Sudoeste 0 -- -- 93
2018-02-14 17:00:00 8 23 Sudoeste 39 Sudoeste 0 -- -- 93
2018-02-14 16:00:00 8.4 21 Sudoeste 37 Sudoeste 0 -- -- 91
2018-02-14 15:00:00 7.4 24 Sudoeste 39 Sudoeste 0.2 -- -- 96
2018-02-14 14:00:00 7.3 20 Sudoeste 38 Sudoeste 0 -- -- 95
2018-02-14 13:00:00 7.9 26 Sudoeste 40 Sudoeste 0 -- -- 88
2018-02-14 12:00:00 7.8 23 Sudoeste 40 Sudoeste 0 -- -- 89
2018-02-14 11:00:00 7.3 23 Sudoeste 36 Sudoeste 0 -- -- 91
2018-02-14 10:00:00 6.8 19 Sudoeste 30 Sudoeste 0 -- -- 92
2018-02-14 09:00:00 6.2 21 Sudoeste 32 Sudoeste 0 -- -- 95
2018-02-14 08:00:00 5.8 18 Sudoeste 27 Sudoeste 0 -- -- 97
2018-02-14 07:00:00 5.6 17 Sur 26 Sudoeste 0 -- -- 96
2018-02-14 06:00:00 5.5 11 Sudoeste 22 Sudoeste 0.2 -- -- 96
2018-02-14 05:00:00 5.5 12 Sudoeste 26 Sudoeste 0 -- -- 95
2018-02-14 04:00:00 6.2 11 Sudoeste 30 Sudoeste 0 -- -- 87
2018-02-14 03:00:00 5.7 14 Sudoeste 26 Sudoeste 0 -- -- 90
2018-02-14 02:00:00 6 17 Sudoeste 28 Sudoeste 0 -- -- 88
2018-02-14 01:00:00 6.3 15 Sudoeste 27 Sudoeste 0 -- -- 86
2018-02-14 00:00:00 6.4 15 Sudoeste 28 Sudoeste 0 -- -- 86
2018-02-13 23:00:00 6.1 14 Sudoeste 30 Sudoeste 0 -- -- 92
2018-02-13 22:00:00 6.5 14 Sudoeste 34 Sudoeste 0 -- -- 89
2018-02-13 21:00:00 6.7 19 Sudoeste 49 Oeste 0 -- -- 89
2018-02-13 20:00:00 7.1 23 Oeste 36 Oeste 0 -- -- 86
2018-02-13 19:00:00 7.4 19 Sudoeste 37 Oeste 0 -- -- 82
2018-02-13 18:00:00 8.1 25 Oeste 41 Oeste 0 -- -- 77
2018-02-13 17:00:00 7.8 18 Sudoeste 37 Sudoeste 0 -- -- 78
2018-02-13 16:00:00 7.3 20 Sudoeste 35 Sudoeste 0 -- -- 77
2018-02-13 15:00:00 7.4 19 Sudoeste 43 Sudoeste 0 -- -- 76
2018-02-13 14:00:00 6.8 26 Sudoeste 52 Oeste 0 -- -- 74
2018-02-13 13:00:00 6.5 30 Sudoeste 49 Sudoeste 0 -- -- 71
2018-02-13 12:00:00 6 27 Sudoeste 43 Sudoeste 0 -- -- 70
2018-02-13 11:00:00 3.8 24 Sudoeste 37 Sudoeste 0 -- -- 75
2018-02-13 10:00:00 1.7 17 Sudoeste 26 Sudoeste 0 -- -- 84
2018-02-13 09:00:00 -0.7 15 Sur 23 Sur 0 -- -- 91
2018-02-13 08:00:00 -0.8 9 Sudoeste 17 Sudoeste 0 -- -- 91
2018-02-13 07:00:00 -1.3 10 Sur 17 Sur 0 -- -- 89
2018-02-13 06:00:00 -1.5 6 Sudoeste 18 Sudoeste 0 -- -- 88
2018-02-13 05:00:00 -1.3 12 Sudoeste 18 Sudoeste 0 -- -- 87
2018-02-13 04:00:00 -0.7 10 Sudoeste 16 Sudoeste 0 -- -- 87
2018-02-13 03:00:00 -0.6 9 Sur 12 Sur 0 -- -- 87
2018-02-13 02:00:00 -0.5 8 Sudoeste 16 Sur 0 -- -- 83
2018-02-13 01:00:00 0.1 9 Sudoeste 14 Sudoeste 0 -- -- 80
2018-02-13 00:00:00 -1.1 7 Sur 10 Sur 0 -- -- 85
2018-02-12 23:00:00 -0.3 9 Sudeste 11 Sudeste 0 -- -- 83
2018-02-12 22:00:00 -0.1 -- -- -- -- 0 -- -- 81
2018-02-12 21:00:00 1 3 Sudoeste 6 Oeste 0 -- -- 72
2018-02-12 20:00:00 1.7 2 Oeste 10 Oeste 0 -- -- 71
2018-02-12 19:00:00 4.7 6 Oeste 18 Oeste 0 -- -- 57
2018-02-12 18:00:00 6.9 10 Noroeste 24 Oeste 0 -- -- 49
2018-02-12 17:00:00 7.6 14 Noroeste 26 Noroeste 0 -- -- 47
2018-02-12 16:00:00 7.7 15 Noroeste 26 Noroeste 0 -- -- 44
2018-02-12 15:00:00 7.4 11 Noroeste 26 Noroeste 0 -- -- 45
2018-02-12 14:00:00 6.8 13 Norte 24 Noroeste 0 -- -- 48
2018-02-12 13:00:00 5.8 11 Norte 21 Norte 0 -- -- 54
2018-02-12 12:00:00 4.9 12 Norte 20 Norte 0 -- -- 55
2018-02-12 11:00:00 3.8 9 Norte 17 Nordeste 0 -- -- 67
2018-02-12 10:00:00 2.9 8 Nordeste 12 Este 0 -- -- 73
2018-02-12 09:00:00 0.9 6 Este 10 Este 0 -- -- 85
2018-02-12 08:00:00 0.8 9 Nordeste 12 Nordeste 0 -- -- 84
2018-02-12 07:00:00 1.5 7 Norte 9 Norte 0 -- -- 93
2018-02-12 06:00:00 2.7 4 Noroeste 13 Norte 0 -- -- 89
2018-02-12 05:00:00 3.5 8 Norte 13 Noroeste 0 -- -- 88
2018-02-12 04:00:00 3.9 4 Oeste 16 Noroeste 0 -- -- 87
2018-02-12 03:00:00 4.4 7 Noroeste 15 Noroeste 0 -- -- 89
2018-02-12 02:00:00 4.8 10 Noroeste 23 Noroeste 0.4 -- -- 90
2018-02-12 01:00:00 6.3 10 Oeste 18 Oeste 0 -- -- 97
2018-02-12 00:00:00 7 8 Oeste 22 Oeste 0.2 -- -- 97
2018-02-11 23:00:00 7.3 10 Sudoeste 20 Oeste 0.8 -- -- 97
2018-02-11 22:00:00 7.5 9 Sudoeste 21 Sudoeste 0.2 -- -- 94
2018-02-11 21:00:00 7.9 12 Sudoeste 24 Sudoeste 0 -- -- 91
2018-02-11 20:00:00 8.7 17 Sudoeste 30 Oeste 0 -- -- 87
2018-02-11 19:00:00 9.4 18 Sudoeste 32 Oeste 0 -- -- 81
2018-02-11 18:00:00 10.2 17 Oeste 35 Oeste 0 -- -- 81
2018-02-11 17:00:00 10.3 17 Oeste 32 Oeste 0 -- -- 82
2018-02-11 16:00:00 10.7 17 Oeste 31 Oeste 0 -- -- 82
2018-02-11 15:00:00 10.6 17 Sudoeste 24 Oeste 0 -- -- 83
2018-02-11 14:00:00 9.9 17 Sudoeste 25 Sudoeste 0 -- -- 87
2018-02-11 13:00:00 8.9 12 Sudoeste 21 Sudoeste 0 -- -- 92
2018-02-11 12:00:00 7.7 13 Sudoeste 20 Sudoeste 0 -- -- 93
2018-02-11 11:00:00 7.5 13 Oeste 21 Sudoeste 0 -- -- 93
2018-02-11 10:00:00 6.6 11 Sudoeste 17 Sudoeste 0 -- -- 94
2018-02-11 09:00:00 5.5 12 Sudoeste 17 Sudoeste 0 -- -- 95
2018-02-11 08:00:00 5.1 9 Sudoeste 15 Sudoeste 0 -- -- 95
2018-02-11 07:00:00 4.8 9 Sudoeste 16 Sudoeste 0 -- -- 94
2018-02-11 06:00:00 4.7 9 Sudoeste 17 Sudoeste 0 -- -- 91
2018-02-11 05:00:00 4.5 10 Sudoeste 19 Sudoeste 0 -- -- 89
2018-02-11 04:00:00 4.4 13 Sudoeste 21 Sudoeste 0 -- -- 90
2018-02-11 03:00:00 3.6 8 Sudoeste 15 Sudoeste 0 -- -- 93
2018-02-11 02:00:00 3.1 9 Sudoeste 13 Sudoeste 0 -- -- 93
2018-02-11 01:00:00 3.5 5 Sudoeste 10 Oeste 0 -- -- 91
2018-02-11 00:00:00 3.9 4 Sudoeste 12 Oeste 0 -- -- 89
2018-02-10 23:00:00 4.2 10 Oeste 15 Oeste 0 -- -- 87
2018-02-10 22:00:00 4.2 5 Oeste 12 Oeste 0 -- -- 85
2018-02-10 21:00:00 4.1 4 Oeste 10 Noroeste 0 -- -- 83
2018-02-10 20:00:00 4.7 7 Noroeste 13 Oeste 0 -- -- 77
2018-02-10 19:00:00 6.4 6 Noroeste 18 Noroeste 0 -- -- 68
2018-02-10 18:00:00 7.7 13 Noroeste 19 Noroeste 0 -- -- 60
2018-02-10 17:00:00 7.9 12 Noroeste 22 Noroeste 0 -- -- 57
2018-02-10 16:00:00 7.8 10 Noroeste 21 Noroeste 0 -- -- 58
2018-02-10 15:00:00 7 4 Noroeste 21 Norte 0 -- -- 60
2018-02-10 14:00:00 5.9 8 Norte 17 Norte 0 -- -- 67
2018-02-10 13:00:00 4.6 8 Noroeste 15 Noroeste 0 -- -- 71
2018-02-10 12:00:00 4.1 3 Norte 13 Este 0 -- -- 73
2018-02-10 11:00:00 2.3 7 Este 12 Este 0 -- -- 82
2018-02-10 10:00:00 -0.7 0 Calma 5 Sudeste 0 -- -- 95
2018-02-10 09:00:00 -3.1 0 Calma 2 Sur 0 -- -- 97
2018-02-10 08:00:00 -3.3 0 Calma 5 Noroeste 0 -- -- 96
2018-02-10 07:00:00 -2.6 0 Calma 2 Norte 0 -- -- 96
2018-02-10 06:00:00 -2 0 Calma 6 Oeste 0 -- -- 94
2018-02-10 05:00:00 -1.2 0 Calma 5 Este 0 -- -- 94
2018-02-10 04:00:00 -0.8 4 Este 10 Este 0 -- -- 93
2018-02-10 03:00:00 -1.1 4 Este 10 Nordeste 0 -- -- 93
2018-02-10 02:00:00 -1.1 2 Nordeste 5 Noroeste 0 -- -- 93
2018-02-10 01:00:00 -0.6 0 Calma 5 Norte 0 -- -- 94
2018-02-10 00:00:00 0.5 0 Calma 6 Noroeste 0 -- -- 95
2018-02-09 23:00:00 1.7 0 Calma 4 Norte 0 -- -- 94
2018-02-09 22:00:00 2.3 0 Calma 8 Oeste 0 -- -- 91
2018-02-09 21:00:00 3.3 4 Oeste 10 Sudoeste 0 -- -- 94
2018-02-09 20:00:00 3.9 7 Sudoeste 16 Sur 0.2 -- -- 93
2018-02-09 19:00:00 4.6 5 Sur 10 Sur 0 -- -- 92
2018-02-09 18:00:00 5.3 6 Sur 10 Sur 0 -- -- 90
2018-02-09 17:00:00 5 6 Sudoeste 15 Oeste 0 -- -- 90
2018-02-09 16:00:00 4.7 8 Oeste 15 Oeste 0 -- -- 91
2018-02-09 15:00:00 4.4 10 Noroeste 20 Noroeste 0 -- -- 94
2018-02-09 14:00:00 3.6 8 Noroeste 13 Oeste 0 -- -- 97
2018-02-09 13:00:00 2.7 6 Oeste 16 Oeste 0 -- -- 98
2018-02-09 12:00:00 2 8 Sudoeste 12 Sudoeste 0.2 -- -- 98
2018-02-09 11:00:00 0.9 5 Sudoeste 8 Sudoeste 1 -- -- 98
2018-02-09 10:00:00 0 5 Sur 9 Oeste 0 -- -- 97
2018-02-09 09:00:00 -0.1 6 Sudoeste 9 Sudoeste 0 -- -- 95
2018-02-09 08:00:00 -0.3 5 Sudoeste 10 Sudoeste 0 -- -- 94
2018-02-09 07:00:00 -0.3 5 Sudoeste 10 Sudoeste 0 -- -- 90
2018-02-09 06:00:00 -0.3 6 Sudoeste 10 Sudoeste 0 -- -- 83
2018-02-09 05:00:00 -1.7 2 Oeste 11 Sudeste 0 -- -- 84
2018-02-09 04:00:00 -1.4 9 Sur 13 Sudeste 0 -- -- 81
2018-02-09 03:00:00 -1.3 12 Sudeste 14 Sudeste 0 -- -- 80
2018-02-09 02:00:00 -2.2 10 Sudeste 14 Sudeste 0 -- -- 82
2018-02-09 01:00:00 -2.5 0 Calma 10 Sudeste 0 -- -- 83
2018-02-09 00:00:00 -2.4 8 Sudeste 13 Sudeste 0 -- -- 80
2018-02-08 23:00:00 -1.8 9 Sudeste 14 Sudeste 0 -- -- 77
2018-02-08 22:00:00 -1.2 9 Sudeste 15 Sudeste 0 -- -- 76
2018-02-08 21:00:00 -1.2 5 Sudeste 6 Sudeste 0 -- -- 74
2018-02-08 20:00:00 -0.7 3 Sudeste 6 Este 0 -- -- 71
2018-02-08 19:00:00 1.8 3 Este 9 Nordeste 0 -- -- 59
2018-02-08 18:00:00 3.5 8 Nordeste 16 Nordeste 0 -- -- 54
2018-02-08 17:00:00 3.8 14 Nordeste 21 Nordeste 0 -- -- 53
2018-02-08 16:00:00 4 10 Nordeste 20 Norte 0 -- -- 54
2018-02-08 15:00:00 3.6 9 Nordeste 23 Nordeste 0 -- -- 56
2018-02-08 14:00:00 2.9 13 Nordeste 25 Este 0 -- -- 60
2018-02-08 13:00:00 2.4 17 Este 26 Este 0 -- -- 64
2018-02-08 12:00:00 1.1 15 Nordeste 22 Nordeste 0 -- -- 73
2018-02-08 11:00:00 -0.1 10 Este 19 Este 0 -- -- 82
2018-02-08 10:00:00 -2.6 2 Nordeste 5 Noroeste 0 -- -- 92
2018-02-08 09:00:00 -4.7 4 Nordeste 11 Este 0 -- -- 92
2018-02-08 08:00:00 -4.9 6 Este 10 Este 0 -- -- 93
2018-02-08 07:00:00 -5.2 5 Este 11 Este 0 -- -- 91
2018-02-08 06:00:00 -4.7 9 Este 12 Este 0 -- -- 91
2018-02-08 05:00:00 -4 9 Nordeste 13 Este 0 -- -- 90
2018-02-08 04:00:00 -4.2 6 Nordeste 8 Nordeste 0 -- -- 90
2018-02-08 03:00:00 -3 7 Nordeste 11 Nordeste 0 -- -- 88
2018-02-08 02:00:00 -2.1 10 Nordeste 16 Este 0 -- -- 85
2018-02-08 01:00:00 -1.6 11 Este 17 Este 0 -- -- 85
2018-02-08 00:00:00 -3.3 4 Este 6 Este 0 -- -- 88
2018-02-07 23:00:00 -3.2 3 Este 10 Norte 0 -- -- 85
2018-02-07 22:00:00 -2.1 3 Nordeste 7 Este 0 -- -- 81
2018-02-07 21:00:00 -1 5 Este 12 Este 0 -- -- 75
2018-02-07 20:00:00 -0.2 9 Este 11 Este 0 -- -- 72
2018-02-07 19:00:00 1.6 8 Nordeste 21 Este 0 -- -- 67
2018-02-07 18:00:00 2.7 15 Nordeste 23 Nordeste 0 -- -- 63
2018-02-07 17:00:00 2 16 Nordeste 32 Nordeste 0 -- -- 70
2018-02-07 16:00:00 3.4 19 Nordeste 29 Nordeste 0 -- -- 60
2018-02-07 15:00:00 3.8 20 Nordeste 30 Nordeste 0 -- -- 59
2018-02-07 14:00:00 3.7 18 Este 30 Este 0 -- -- 67
2018-02-07 13:00:00 2.5 17 Nordeste 30 Nordeste 0 -- -- 67
2018-02-07 12:00:00 2.3 20 Nordeste 27 Nordeste 0 -- -- 71
2018-02-07 11:00:00 0.6 12 Nordeste 15 Nordeste 0 -- -- 81
2018-02-07 10:00:00 -2.5 2 Nordeste 4 Nordeste 0 -- -- 92
2018-02-07 09:00:00 -5.5 0 Calma 4 Este 0 -- -- 95
2018-02-07 08:00:00 -5.6 3 Este 4 Este 0 -- -- 95
2018-02-07 07:00:00 -5.6 0 Calma 3 Sudeste 0 -- -- 93
2018-02-07 06:00:00 -4.8 3 Noroeste 5 Noroeste 0 -- -- 92
2018-02-07 05:00:00 -4.7 0 Calma 3 Este 0 -- -- 93
2018-02-07 04:00:00 -5 0 Calma 3 Nordeste 0 -- -- 90
2018-02-07 03:00:00 -3.9 0 Calma 6 Nordeste 0 -- -- 88
2018-02-07 02:00:00 -3.4 6 Este 9 Nordeste 0 -- -- 87
2018-02-07 01:00:00 -2.8 8 Nordeste 15 Este 0 -- -- 85
2018-02-07 00:00:00 -2 11 Este 14 Este 0 -- -- 82
2018-02-06 23:00:00 -1.9 8 Este 9 Este 0 -- -- 82
2018-02-06 22:00:00 -1 8 Este 13 Este 0 -- -- 77
2018-02-06 21:00:00 -1.6 6 Nordeste 12 Nordeste 0 -- -- 81
2018-02-06 20:00:00 -1 2 Noroeste 4 Oeste 0 -- -- 78
2018-02-06 19:00:00 1 4 Nordeste 14 Nordeste 0 -- -- 71
2018-02-06 18:00:00 2.6 12 Nordeste 21 Este 0 -- -- 61
2018-02-06 17:00:00 3.2 14 Nordeste 28 Nordeste 0 -- -- 62
2018-02-06 16:00:00 3.6 24 Nordeste 37 Norte 0 -- -- 56
2018-02-06 15:00:00 3.5 27 Nordeste 40 Nordeste 0 -- -- 57
2018-02-06 14:00:00 2.7 23 Nordeste 31 Nordeste 0 -- -- 63
2018-02-06 13:00:00 1.5 19 Nordeste 35 Nordeste 0 -- -- 73
2018-02-06 12:00:00 0.6 21 Este 28 Este 0.4 -- -- 77
2018-02-06 11:00:00 -0.5 17 Nordeste 25 Nordeste 0 -- -- 80
2018-02-06 10:00:00 -2.5 10 Nordeste 14 Nordeste 0 -- -- 82
2018-02-06 09:00:00 -4.5 8 Nordeste 12 Nordeste 0 -- -- 86
2018-02-06 08:00:00 -4.3 7 Nordeste 18 Nordeste 0 -- -- 83
2018-02-06 07:00:00 -3.8 11 Nordeste 21 Nordeste 0 -- -- 84
2018-02-06 06:00:00 -3 14 Nordeste 24 Nordeste 0 -- -- 82
2018-02-06 05:00:00 -2.4 9 Nordeste 14 Nordeste 0 -- -- 82
2018-02-06 04:00:00 -2.6 4 Nordeste 7 Nordeste 0 -- -- 83
2018-02-06 03:00:00 -2.3 4 Nordeste 15 Nordeste 0 -- -- 82
2018-02-06 02:00:00 -1.4 13 Nordeste 26 Nordeste 0 -- -- 82
2018-02-06 01:00:00 -1 12 Nordeste 17 Nordeste 0 -- -- 86
2018-02-06 00:00:00 -0.7 10 Nordeste 17 Nordeste 0 -- -- 94
2018-02-05 23:00:00 0 13 Nordeste 26 Nordeste 0 -- -- 94
2018-02-05 22:00:00 0 7 Nordeste 14 Nordeste 0 -- -- 96
2018-02-05 21:00:00 0.2 12 Nordeste 22 Nordeste 0 -- -- 97
2018-02-05 20:00:00 0.2 14 Nordeste 35 Nordeste 0 -- -- 96
2018-02-05 19:00:00 1.2 28 Nordeste 45 Nordeste 0 -- -- 90
2018-02-05 18:00:00 4 28 Nordeste 42 Nordeste 0 -- -- 67
2018-02-05 17:00:00 4.8 26 Nordeste 41 Nordeste 0 -- -- 63
2018-02-05 16:00:00 4.3 18 Norte 36 Nordeste 0 -- -- 67
2018-02-05 15:00:00 3.8 31 Norte 44 Norte 0 -- -- 74
2018-02-05 14:00:00 4.5 30 Nordeste 42 Nordeste 0 -- -- 68
2018-02-05 13:00:00 3.2 34 Nordeste 47 Nordeste 0 -- -- 76
2018-02-05 12:00:00 2.4 23 Norte 32 Norte 0 -- -- 83
2018-02-05 11:00:00 1 14 Norte 20 Norte 0 -- -- 92
2018-02-05 10:00:00 -0.9 6 Norte 9 Norte 0 -- -- 93
2018-02-05 09:00:00 -2.2 3 Nordeste 9 Nordeste 0 -- -- 94
2018-02-05 08:00:00 -1.7 7 Nordeste 9 Nordeste 0 -- -- 93
2018-02-05 07:00:00 -2 0 Calma 12 Nordeste 0 -- -- 92
2018-02-05 06:00:00 -1.5 5 Norte 10 Norte 0 -- -- 91
2018-02-05 05:00:00 -0.8 4 Norte 8 Noroeste 0 -- -- 93
2018-02-05 04:00:00 -1.2 5 Noroeste 7 Norte 0 -- -- 93
2018-02-05 03:00:00 -1.5 3 Oeste 4 Oeste 0 -- -- 92
2018-02-05 02:00:00 -1.6 0 Calma 10 Nordeste 0 -- -- 90
2018-02-05 01:00:00 -1.1 9 Nordeste 13 Nordeste 0 -- -- 88
2018-02-05 00:00:00 0.3 13 Nordeste 18 Nordeste 0 -- -- 83
2018-02-04 23:00:00 -0.7 7 Este 10 Nordeste 0 -- -- 87
2018-02-04 22:00:00 0.3 10 Nordeste 12 Nordeste 0 -- -- 83
2018-02-04 21:00:00 1.6 11 Nordeste 13 Nordeste 0 -- -- 78
2018-02-04 20:00:00 1.5 2 Norte 6 Nordeste 0 -- -- 74
2018-02-04 19:00:00 3.6 6 Nordeste 14 Nordeste 0 -- -- 69
2018-02-04 18:00:00 4.5 10 Nordeste 21 Nordeste 0 -- -- 64
2018-02-04 17:00:00 4.8 16 Nordeste 33 Nordeste 0 -- -- 62
2018-02-04 16:00:00 5.3 21 Nordeste 31 Nordeste 0 -- -- 62
2018-02-04 15:00:00 4.7 22 Nordeste 32 Nordeste 0 -- -- 63
2018-02-04 14:00:00 3.6 19 Nordeste 29 Nordeste 0 -- -- 66
2018-02-04 13:00:00 3.4 21 Nordeste 31 Norte 0 -- -- 70
2018-02-04 12:00:00 3.4 19 Norte 28 Norte 0 -- -- 73
2018-02-04 11:00:00 1.4 10 Norte 15 Norte 0 -- -- 87
2018-02-04 10:00:00 -0.1 3 Norte 6 Norte 0.2 -- -- 93
2018-02-04 09:00:00 -1.9 0 Calma 9 Noroeste 0 -- -- 95
2018-02-04 08:00:00 -1.4 5 Noroeste 15 Noroeste 0 -- -- 94
2018-02-04 07:00:00 -1.1 2 Oeste 14 Oeste 0 -- -- 92
2018-02-04 06:00:00 -0.2 5 Oeste 9 Oeste 0 -- -- 94
2018-02-04 05:00:00 0.5 3 Noroeste 21 Noroeste 0 -- -- 95
2018-02-04 04:00:00 1.6 14 Noroeste 24 Oeste 0 -- -- 94
2018-02-04 03:00:00 2.3 14 Noroeste 27 Oeste 0 -- -- 93
2018-02-04 02:00:00 2.9 18 Oeste 32 Oeste 0 -- -- 93
2018-02-04 01:00:00 3.5 19 Oeste 31 Oeste 0 -- -- 94
2018-02-04 00:00:00 3.5 17 Oeste 29 Oeste 0 -- -- 95
2018-02-03 23:00:00 3.7 15 Oeste 30 Oeste 0 -- -- 96
2018-02-03 22:00:00 4.2 12 Oeste 24 Oeste 0 -- -- 97
2018-02-03 21:00:00 4.1 12 Oeste 20 Oeste 0 -- -- 97
2018-02-03 20:00:00 4.4 12 Oeste 25 Oeste 0.4 -- -- 94
2018-02-03 19:00:00 5.2 18 Oeste 29 Oeste 0 -- -- 87
2018-02-03 18:00:00 5.8 13 Sudoeste 25 Oeste 0 -- -- 84
2018-02-03 17:00:00 6.2 12 Oeste 22 Sudoeste 0.2 -- -- 81
2018-02-03 16:00:00 6.4 14 Sudoeste 24 Oeste 0 -- -- 71
2018-02-03 15:00:00 6.2 17 Oeste 24 Oeste 0 -- -- 69
2018-02-03 14:00:00 5.6 12 Oeste 23 Oeste 0 -- -- 73
2018-02-03 13:00:00 4.5 11 Sudoeste 23 Oeste 0 -- -- 76
2018-02-03 12:00:00 3.1 10 Oeste 19 Oeste 0 -- -- 78
2018-02-03 11:00:00 1.5 10 Sudoeste 18 Sur 0 -- -- 81
2018-02-03 10:00:00 -0.5 9 Sur 14 Sudoeste 0 -- -- 85
2018-02-03 09:00:00 -2.1 7 Sur 15 Sur 0 -- -- 88
2018-02-03 08:00:00 -2.4 8 Sudoeste 13 Sudoeste 0 -- -- 88
2018-02-03 07:00:00 -2.1 9 Sudoeste 13 Sudoeste 0 -- -- 87
2018-02-03 06:00:00 -2.9 6 Sur 9 Sur 0 -- -- 88
2018-02-03 05:00:00 -3.6 5 Sur 9 Sur 0 -- -- 89
2018-02-03 04:00:00 -2.7 8 Sur 10 Sur 0 -- -- 88
2018-02-03 03:00:00 -3.1 3 Sudoeste 5 Sudoeste 0 -- -- 88
2018-02-03 02:00:00 -2.7 4 Sudoeste 6 Sur 0 -- -- 88
2018-02-03 01:00:00 -2.6 3 Sur 6 Oeste 0 -- -- 88
2018-02-03 00:00:00 -1.9 0 Calma 10 Oeste 0 -- -- 85
2018-02-02 23:00:00 -1.1 3 Norte 8 Noroeste 0 -- -- 84
2018-02-02 22:00:00 0.6 6 Noroeste 9 Noroeste 0 -- -- 77
2018-02-02 21:00:00 1.5 3 Sudoeste 9 Norte 0 -- -- 73
2018-02-02 20:00:00 2.5 2 Norte 10 Noroeste 0 -- -- 71
2018-02-02 19:00:00 4.1 6 Noroeste 13 Noroeste 0 -- -- 64
2018-02-02 18:00:00 5.2 9 Noroeste 23 Norte 0 -- -- 60
2018-02-02 17:00:00 5.9 9 Noroeste 24 Noroeste 0 -- -- 55
2018-02-02 16:00:00 5.5 8 Norte 18 Noroeste 0 -- -- 56
2018-02-02 15:00:00 4.5 10 Norte 33 Nordeste 0 -- -- 58
2018-02-02 14:00:00 4.3 15 Norte 25 Norte 0 -- -- 60
2018-02-02 13:00:00 3.1 10 Norte 23 Norte 0 -- -- 70
2018-02-02 12:00:00 1.8 5 Noroeste 10 Oeste 0 -- -- 82
2018-02-02 11:00:00 -0.3 2 Noroeste 5 Noroeste 0 -- -- 93
2018-02-02 10:00:00 -1.9 3 Oeste 4 Sudoeste 0 -- -- 96
2018-02-02 09:00:00 -4 3 Sudoeste 6 Sur 0 -- -- 97
2018-02-02 08:00:00 -4.3 0 Calma 3 Noroeste 0 -- -- 96
2018-02-02 07:00:00 -4.2 0 Calma 3 Sudeste 0 -- -- 95
2018-02-02 06:00:00 -3.6 0 Calma 4 Noroeste 0 -- -- 94
2018-02-02 05:00:00 -3.1 0 Calma 6 Noroeste 0 -- -- 94
2018-02-02 04:00:00 -3.1 3 Noroeste 4 Noroeste 0 -- -- 93
2018-02-02 03:00:00 -2.5 0 Calma 5 Norte 0 -- -- 91
2018-02-02 02:00:00 -2.2 2 Nordeste 6 Norte 0 -- -- 92
2018-02-02 01:00:00 -1.7 4 Norte 12 Noroeste 0 -- -- 89
2018-02-02 00:00:00 -1.2 5 Norte 10 Noroeste 0 -- -- 90
2018-02-01 23:00:00 -0.3 8 Norte 13 Norte 0 -- -- 88
2018-02-01 22:00:00 0.7 8 Norte 15 Norte 0 -- -- 84
2018-02-01 21:00:00 1.8 12 Norte 18 Noroeste 0 -- -- 83
2018-02-01 20:00:00 2.5 8 Noroeste 27 Oeste 0 -- -- 84
2018-02-01 19:00:00 4.2 20 Noroeste 40 Noroeste 0.2 -- -- 78
2018-02-01 18:00:00 5.9 27 Noroeste 44 Noroeste 0 -- -- 70
2018-02-01 17:00:00 6.9 27 Noroeste 43 Noroeste 0 -- -- 64
2018-02-01 16:00:00 7.8 24 Noroeste 45 Noroeste 0 -- -- 58
2018-02-01 15:00:00 7.1 28 Noroeste 41 Noroeste 0 -- -- 61
2018-02-01 14:00:00 7.4 24 Noroeste 35 Noroeste 0 -- -- 64
2018-02-01 13:00:00 6.6 17 Noroeste 30 Noroeste 0 -- -- 79
2018-02-01 12:00:00 6.3 15 Noroeste 20 Noroeste 0 -- -- 85
2018-02-01 11:00:00 4.5 8 Oeste 15 Sudoeste 0 -- -- 95
2018-02-01 10:00:00 3.5 4 Oeste 11 Oeste 0 -- -- 96
2018-02-01 09:00:00 1.9 6 Sudoeste 9 Sudoeste 0 -- -- 95
2018-02-01 08:00:00 2.5 6 Sudoeste 9 Sudoeste 0 -- -- 93
2018-02-01 07:00:00 2.5 5 Sudoeste 13 Oeste 0 -- -- 89
2018-02-01 06:00:00 3 9 Oeste 15 Oeste 0 -- -- 85
2018-02-01 05:00:00 3.4 6 Sudoeste 15 Sudoeste 0 -- -- 78
2018-02-01 04:00:00 4.9 9 Sudoeste 16 Sudoeste 0 -- -- 72
2018-02-01 03:00:00 4.5 10 Sudoeste 19 Sur 0 -- -- 72
2018-02-01 02:00:00 4.9 10 Sudoeste 14 Sudoeste 0 -- -- 66
2018-02-01 01:00:00 5.3 8 Sudoeste 16 Sur 0 -- -- 66
2018-02-01 00:00:00 4.4 11 Sur 15 Sur 0 -- -- 67
2018-01-31 23:00:00 2.5 10 Sur 13 Sudeste 0 -- -- 79
2018-01-31 22:00:00 3.2 3 Sur 4 Sur 0 -- -- 76
2018-01-31 21:00:00 4.4 0 Calma -- -- 0 -- -- 71
2018-01-31 20:00:00 6.1 2 Sudoeste 9 Noroeste 0 -- -- 65
2018-01-31 19:00:00 8.7 0 Calma 4 Noroeste 0 -- -- 52
2018-01-31 18:00:00 13.1 2 Oeste 9 Noroeste 0 -- -- 39
2018-01-31 17:00:00 13.8 2 Noroeste 7 Noroeste 0 -- -- 32
2018-01-31 16:00:00 12.9 2 Este 10 Noroeste 0 -- -- 35
2018-01-31 15:00:00 12.4 7 Noroeste 14 Noroeste 0 -- -- 45
2018-01-31 14:00:00 11.7 5 Noroeste 10 Noroeste 0 -- -- 51
2018-01-31 13:00:00 9.8 4 Norte 8 Norte 0 -- -- 58
2018-01-31 12:00:00 7.1 3 Norte 9 Noroeste 0 -- -- 74
2018-01-31 11:00:00 4.2 3 Este 5 Norte 0 -- -- 84
2018-01-31 10:00:00 0.2 0 Calma 3 Sudeste 0 -- -- 94
2018-01-31 09:00:00 -2.3 0 Calma 7 Sudeste 0 -- -- 92
2018-01-31 08:00:00 -1.9 4 Sudeste 7 Sudeste 0 -- -- 96
2018-01-31 07:00:00 -2.7 3 Norte 9 Este 0 -- -- 93
2018-01-31 06:00:00 -2.9 3 Este 5 Norte 0 -- -- 93
2018-01-31 05:00:00 -1.9 3 Norte 5 Norte 0 -- -- 93
2018-01-31 04:00:00 -0.9 2 Norte 9 Sudeste 0 -- -- 92
2018-01-31 03:00:00 -0.9 3 Este 7 Este 0 -- -- 92
2018-01-31 02:00:00 -0.5 0 Calma 4 Este 0 -- -- 91
2018-01-31 01:00:00 0.1 0 Calma 5 Sudeste 0 -- -- 89
2018-01-31 00:00:00 3.5 6 Este 12 Este 0 -- -- 80
2018-01-30 23:00:00 3.3 5 Sudeste 12 Este 0 -- -- 83
2018-01-30 22:00:00 4.9 7 Este 12 Este 0 -- -- 80
2018-01-30 21:00:00 5 9 Este 12 Este 0 -- -- 79
2018-01-30 20:00:00 6.4 10 Este 13 Este 0 -- -- 72
2018-01-30 19:00:00 8.4 5 Este 14 Nordeste 0 -- -- 63
2018-01-30 18:00:00 11.6 10 Nordeste 18 Nordeste 0 -- -- 57
2018-01-30 17:00:00 12.8 13 Nordeste 18 Nordeste 0 -- -- 52
2018-01-30 16:00:00 13.2 10 Norte 17 Norte 0 -- -- 52
2018-01-30 15:00:00 12.8 10 Noroeste 15 Noroeste 0 -- -- 54
2018-01-30 14:00:00 11.1 6 Norte 11 Norte 0 -- -- 63
2018-01-30 13:00:00 8.9 4 Nordeste 10 Este 0 -- -- 74
2018-01-30 12:00:00 6.4 8 Este 13 Nordeste 0 -- -- 84
2018-01-30 11:00:00 4.5 11 Nordeste 14 Nordeste 0 -- -- 88
2018-01-30 10:00:00 1.3 9 Este 13 Este 0 -- -- 97
2018-01-30 09:00:00 -1.6 0 Calma 9 Este 0 -- -- 97
2018-01-30 08:00:00 -1.1 2 Sudeste 4 Sudeste 0 -- -- 97
2018-01-30 07:00:00 -0.9 3 Norte 7 Sudeste 0 -- -- 95
2018-01-30 06:00:00 -0.3 3 Este 8 Este 0 -- -- 95
2018-01-30 05:00:00 1 3 Nordeste -- -- 0 -- -- 97
2018-01-30 04:00:00 1.4 6 Este 10 Este 0 -- -- 96
2018-01-30 03:00:00 0.5 10 Nordeste 12 Nordeste 0 -- -- 95
2018-01-30 02:00:00 2.9 8 Este 19 Este 0 -- -- 82
2018-01-30 01:00:00 3.8 8 Sudeste 17 Este 0 -- -- 89
2018-01-30 00:00:00 3.1 9 Este 12 Este 0 -- -- 90
2018-01-29 23:00:00 3.8 6 Sudeste 10 Este 0 -- -- 88
2018-01-29 22:00:00 3.9 5 Este 7 Este 0 -- -- 86
2018-01-29 21:00:00 6.2 3 Sudeste 22 Este 0 -- -- 81
2018-01-29 20:00:00 7.1 10 Este 17 Este 0 -- -- 78
2018-01-29 19:00:00 8.1 13 Nordeste 20 Nordeste 0 -- -- 75
2018-01-29 18:00:00 10.9 14 Nordeste 25 Nordeste 0 -- -- 65
2018-01-29 17:00:00 12.1 20 Nordeste 30 Nordeste 0 -- -- 59
2018-01-29 16:00:00 12.3 19 Nordeste 29 Nordeste 0 -- -- 60
2018-01-29 15:00:00 12.5 20 Nordeste 30 Nordeste 0 -- -- 59
2018-01-29 14:00:00 12.3 19 Nordeste 25 Nordeste 0 -- -- 61
2018-01-29 13:00:00 11.5 16 Nordeste 22 Nordeste 0 -- -- 64
2018-01-29 12:00:00 8.8 10 Nordeste 16 Nordeste 0 -- -- 75
2018-01-29 11:00:00 5.6 9 Nordeste 13 Nordeste 0 -- -- 86
2018-01-29 10:00:00 2.6 6 Nordeste 19 Este 0 -- -- 92
2018-01-29 09:00:00 1.3 12 Este 20 Este 0 -- -- 96
2018-01-29 08:00:00 1.1 10 Nordeste 18 Nordeste 0 -- -- 94
2018-01-29 07:00:00 0.5 9 Nordeste 13 Nordeste 0 -- -- 97
2018-01-29 06:00:00 1.2 12 Nordeste 14 Nordeste 0 -- -- 93
2018-01-29 05:00:00 1.7 6 Este 13 Este 0 -- -- 93
2018-01-29 04:00:00 2.1 10 Este 13 Este 0 -- -- 91
2018-01-29 03:00:00 3.6 12 Este 21 Este 0 -- -- 89
2018-01-29 02:00:00 4.4 13 Este 27 Nordeste 0 -- -- 86
2018-01-29 01:00:00 3 6 Este 16 Este 0 -- -- 92
2018-01-29 00:00:00 4 3 Nordeste 15 Este 0 -- -- 87
2018-01-28 23:00:00 5.4 9 Este 22 Este 0 -- -- 86
2018-01-28 22:00:00 6.2 14 Nordeste 24 Este 0 -- -- 84
2018-01-28 21:00:00 6.9 15 Nordeste 33 Nordeste 0 -- -- 82
2018-01-28 20:00:00 8 20 Nordeste 31 Nordeste 0 -- -- 77
2018-01-28 19:00:00 8.5 18 Nordeste 32 Este 0 -- -- 74
2018-01-28 18:00:00 10.1 27 Nordeste 37 Nordeste 0 -- -- 69
2018-01-28 17:00:00 10.4 25 Nordeste 46 Nordeste 0 -- -- 66
2018-01-28 16:00:00 9.7 30 Nordeste 45 Nordeste 0 -- -- 68
2018-01-28 15:00:00 8.3 30 Nordeste 45 Nordeste 0 -- -- 74
2018-01-28 14:00:00 6.9 28 Nordeste 39 Nordeste 0 -- -- 71
2018-01-28 13:00:00 5.2 30 Nordeste 40 Nordeste 0 -- -- 74
2018-01-28 12:00:00 3.4 26 Nordeste 34 Nordeste 0 -- -- 81
2018-01-28 11:00:00 1.7 26 Este 33 Este 0 -- -- 86
2018-01-28 10:00:00 -0.1 20 Nordeste 27 Nordeste 0 -- -- 92
2018-01-28 09:00:00 -1.6 15 Nordeste 20 Nordeste 0 -- -- 96
2018-01-28 08:00:00 -1.7 5 Este 20 Nordeste 0 -- -- 94
2018-01-28 07:00:00 -1.2 12 Este 22 Este 0 -- -- 94
2018-01-28 06:00:00 -0.8 14 Este 22 Este 0 -- -- 92
2018-01-28 05:00:00 -0.6 13 Este 22 Este 0 -- -- 91
2018-01-28 04:00:00 -0.3 14 Este 21 Este 0 -- -- 91
2018-01-28 03:00:00 0.2 14 Este 25 Nordeste 0 -- -- 88
2018-01-28 02:00:00 0.5 20 Nordeste 27 Nordeste 0 -- -- 89
2018-01-28 01:00:00 0.9 15 Nordeste 23 Este 0 -- -- 86
2018-01-28 00:00:00 2.3 17 Nordeste 32 Nordeste 0 -- -- 80
2018-01-27 23:00:00 2.4 14 Nordeste 26 Nordeste 0 -- -- 81
2018-01-27 22:00:00 3.7 18 Nordeste 33 Nordeste 0 -- -- 78
2018-01-27 21:00:00 4.9 26 Nordeste 36 Este 0 -- -- 75
2018-01-27 20:00:00 5.1 11 Nordeste 14 Nordeste 0 -- -- 79
2018-01-27 19:00:00 5 12 Este 25 Nordeste 0 -- -- 79
2018-01-27 18:00:00 6.1 18 Este 31 Este 0 -- -- 74
2018-01-27 17:00:00 7.1 21 Nordeste 32 Nordeste 0 -- -- 67
2018-01-27 16:00:00 7.7 26 Nordeste 37 Nordeste 0 -- -- 62
2018-01-27 15:00:00 7.7 21 Nordeste 30 Nordeste 0 -- -- 68
2018-01-27 14:00:00 7 20 Norte 31 Norte 0 -- -- 70
2018-01-27 13:00:00 5.1 13 Norte 20 Norte 0 -- -- 84
2018-01-27 12:00:00 0.9 0 Calma 5 Noroeste 0 -- -- 100
2018-01-27 11:00:00 -0.7 3 Noroeste 4 Norte 0 -- -- 99
2018-01-27 10:00:00 -1.4 2 Oeste 6 Sudeste 0 -- -- 100
2018-01-27 09:00:00 -1.6 6 Sudeste 9 Sudeste 0 -- -- 99
2018-01-27 08:00:00 -2.2 3 Sudoeste 6 Sudoeste 0 -- -- 99
2018-01-27 07:00:00 -1.7 5 Sudoeste 9 Sur 0 -- -- 99
2018-01-27 06:00:00 -2.1 4 Sur 7 Sudeste 0 -- -- 98
2018-01-27 05:00:00 -1.9 0 Calma 7 Sudeste 0 -- -- 98
2018-01-27 04:00:00 -1.3 4 Sur 5 Sudeste 0 -- -- 98
2018-01-27 03:00:00 -1.4 3 Sudoeste -- -- 0 -- -- 98
2018-01-27 02:00:00 -0.9 0 Calma 4 Noroeste 0 -- -- 97
2018-01-27 01:00:00 -0.3 3 Noroeste 5 Noroeste 0 -- -- 97
2018-01-27 00:00:00 0.2 0 Calma 6 Noroeste 0 -- -- 94
2018-01-26 23:00:00 1.3 6 Noroeste 10 Noroeste 0 -- -- 94
2018-01-26 22:00:00 1.7 4 Noroeste 13 Noroeste 0 -- -- 92
2018-01-26 21:00:00 2.6 10 Noroeste 18 Noroeste 0 -- -- 89
2018-01-26 20:00:00 3.6 9 Noroeste 28 Noroeste 0 -- -- 85
2018-01-26 19:00:00 4.6 19 Noroeste 34 Noroeste 0 -- -- 77
2018-01-26 18:00:00 6.2 25 Noroeste 37 Noroeste 0 -- -- 72
2018-01-26 17:00:00 6.3 19 Noroeste 32 Noroeste 0 -- -- 75
2018-01-26 16:00:00 6.7 17 Noroeste 27 Noroeste 0 -- -- 73
2018-01-26 15:00:00 6 15 Noroeste 31 Noroeste 0 -- -- 73
2018-01-26 14:00:00 5.5 16 Noroeste 30 Noroeste 0 -- -- 78
2018-01-26 13:00:00 5.2 21 Noroeste 34 Noroeste 0 -- -- 83
2018-01-26 12:00:00 4.1 18 Noroeste 29 Oeste 0 -- -- 88
2018-01-26 11:00:00 2 9 Oeste 22 Oeste 0 -- -- 97
2018-01-26 10:00:00 0.8 8 Oeste 14 Oeste 0 -- -- 98
2018-01-26 09:00:00 0.3 4 Oeste 14 Oeste 0 -- -- 98
2018-01-26 08:00:00 0.7 9 Oeste 17 Oeste 0 -- -- 97
2018-01-26 07:00:00 0.6 6 Oeste 16 Oeste 0 -- -- 98
2018-01-26 06:00:00 -0.2 7 Sudoeste 12 Sudoeste 0 -- -- 98
2018-01-26 05:00:00 -0.3 8 Oeste 16 Oeste 0 -- -- 97
2018-01-26 04:00:00 0.1 8 Oeste 19 Oeste 0 -- -- 96
2018-01-26 03:00:00 0.2 6 Oeste 18 Oeste 0 -- -- 97
2018-01-26 02:00:00 0.7 13 Oeste 21 Oeste 0 -- -- 97
2018-01-26 01:00:00 0.6 7 Oeste 16 Noroeste 0 -- -- 96
2018-01-26 00:00:00 1.2 10 Noroeste 24 Oeste 0.2 -- -- 95
2018-01-25 23:00:00 1.5 12 Oeste 26 Oeste 0 -- -- 97
2018-01-25 22:00:00 2.1 16 Noroeste 30 Noroeste 0 -- -- 96
2018-01-25 21:00:00 2.6 16 Noroeste 27 Oeste 0 -- -- 96
2018-01-25 20:00:00 3 16 Noroeste 29 Noroeste 0 -- -- 97
2018-01-25 19:00:00 2.7 17 Oeste 27 Oeste 0 -- -- 98
2018-01-25 18:00:00 2.8 14 Oeste 42 Noroeste 0.6 -- -- 97
2018-01-25 17:00:00 4.7 24 Oeste 51 Oeste 0.4 -- -- 85
2018-01-25 16:00:00 6 14 Oeste 33 Oeste 0 -- -- 93
2018-01-25 15:00:00 6.1 14 Oeste 28 Sudoeste 0 -- -- 95
2018-01-25 14:00:00 6 16 Sudoeste 33 Oeste 1.4 -- -- 97
2018-01-25 13:00:00 6.4 16 Oeste 32 Oeste 1 -- -- 98
2018-01-25 12:00:00 6.4 20 Sudoeste 37 Sudoeste 0.2 -- -- 98
2018-01-25 11:00:00 6.8 23 Sudoeste 39 Sur 0.6 -- -- 96
2018-01-25 10:00:00 7.1 17 Sudoeste 27 Sur 1.2 -- -- 96
2018-01-25 09:00:00 6.6 19 Sudoeste 33 Sudoeste 1.6 -- -- 97
2018-01-25 08:00:00 5 6 Sur 12 Sur 0.4 -- -- 98
2018-01-25 07:00:00 4.2 0 Calma 4 Oeste 0.2 -- -- 97
2018-01-25 06:00:00 4.1 2 Sudoeste 9 Sudoeste 0 -- -- 94
2018-01-25 05:00:00 3.9 5 Sur 12 Sur 0 -- -- 92
2018-01-25 04:00:00 3.6 7 Sur 13 Sur 0 -- -- 99
2018-01-25 03:00:00 3.7 8 Sur 10 Sur 0 -- -- 99
2018-01-25 02:00:00 3 8 Sur 15 Sudeste 0 -- -- 98
2018-01-25 01:00:00 3.1 11 Sudeste 13 Sudeste 0 -- -- 99
2018-01-25 00:00:00 2.9 6 Sudeste 8 Sudeste 0 -- -- 99
2018-01-24 23:00:00 2.6 3 Oeste 10 Sudeste 0 -- -- 97
2018-01-24 22:00:00 3.3 3 Sur 9 Sur 0 -- -- 98
2018-01-24 21:00:00 3.7 0 Calma 9 Sur 0 -- -- 98
2018-01-24 20:00:00 4.7 8 Sudeste 11 Sur 0 -- -- 97
2018-01-24 19:00:00 5 6 Sur 9 Sur 0 -- -- 97
2018-01-24 18:00:00 5.9 4 Sur 7 Sudoeste 0 -- -- 98
2018-01-24 17:00:00 5.9 4 Sudoeste 8 Sudoeste 0 -- -- 100
2018-01-24 16:00:00 4.7 2 Sudoeste 8 Sudoeste 0 -- -- 100
2018-01-24 15:00:00 4.1 4 Sudoeste 9 Oeste 0 -- -- 100
2018-01-24 14:00:00 3.3 4 Oeste 8 Oeste 0 -- -- 100
2018-01-24 13:00:00 2.4 2 Noroeste 7 Noroeste 0 -- -- 100
2018-01-24 12:00:00 1.9 2 Norte 5 Nordeste 0 -- -- 100
2018-01-24 11:00:00 1 3 Nordeste 7 Nordeste 0 -- -- 100
2018-01-24 10:00:00 0.7 0 Calma 7 Norte 0 -- -- 100
2018-01-24 09:00:00 0.3 0 Calma 6 Norte 0.2 -- -- 100
2018-01-24 08:00:00 0.2 2 Este 12 Este 0 -- -- 100
2018-01-24 07:00:00 0.6 5 Este 9 Nordeste 0 -- -- 100
2018-01-24 06:00:00 0.6 2 Este 11 Este 0 -- -- 100
2018-01-24 05:00:00 1.1 6 Este 12 Este 0 -- -- 100
2018-01-24 04:00:00 1.1 5 Este 10 Este 0 -- -- 100
2018-01-24 03:00:00 1.7 7 Este 13 Este 0 -- -- 100
2018-01-24 02:00:00 2.3 5 Este 17 Este 0 -- -- 100
2018-01-24 01:00:00 3 8 Este 15 Este 0 -- -- 100
2018-01-24 00:00:00 3 11 Nordeste 15 Nordeste 0 -- -- 100
2018-01-23 23:00:00 3.6 9 Nordeste 16 Nordeste 0 -- -- 100
2018-01-23 22:00:00 4.3 7 Nordeste 13 Nordeste 0 -- -- 99
2018-01-23 21:00:00 4.8 7 Nordeste 12 Nordeste 0 -- -- 99
2018-01-23 20:00:00 4.3 7 Este 10 Este 0 -- -- 98
2018-01-23 19:00:00 5.5 3 Sudeste 9 Este 0 -- -- 94
2018-01-23 18:00:00 6.5 5 Este 14 Nordeste 0 -- -- 92
2018-01-23 17:00:00 6.8 7 Nordeste 16 Norte 0 -- -- 92
2018-01-23 16:00:00 6.9 10 Norte 15 Norte 0 -- -- 96
2018-01-23 15:00:00 6.6 6 Nordeste 15 Nordeste 0 -- -- 100
2018-01-23 14:00:00 6 8 Nordeste 18 Nordeste 0 -- -- 100
2018-01-23 13:00:00 5 10 Este 19 Nordeste 0 -- -- 100
2018-01-23 12:00:00 3.8 13 Nordeste 19 Nordeste 0 -- -- 100
2018-01-23 11:00:00 2.4 15 Este 25 Este 0 -- -- 100
2018-01-23 10:00:00 2.4 10 Este 16 Este 0 -- -- 100
2018-01-23 09:00:00 1.9 10 Nordeste 17 Nordeste 0 -- -- 100
2018-01-23 08:00:00 0.9 10 Nordeste 13 Nordeste 0 -- -- 100
2018-01-23 07:00:00 0.9 6 Nordeste 13 Este 0 -- -- 100
2018-01-23 06:00:00 0.3 10 Este 14 Este 0 -- -- 100
2018-01-23 05:00:00 0.9 4 Este 8 Este 0 -- -- 99
2018-01-23 04:00:00 1 6 Nordeste 9 Este 0 -- -- 98
2018-01-23 03:00:00 1.6 3 Este 8 Este 0 -- -- 98
2018-01-23 02:00:00 1.9 2 Norte 9 Sudeste 0 -- -- 97
2018-01-23 01:00:00 3 0 Calma 11 Sudeste 0 -- -- 97
2018-01-23 00:00:00 3.6 7 Sudeste 13 Sudeste 0 -- -- 97
2018-01-22 23:00:00 3.8 6 Sudeste 8 Sudeste 0 -- -- 96
2018-01-22 22:00:00 4.6 4 Sudeste 6 Sudeste 0 -- -- 95
2018-01-22 21:00:00 5.4 0 Calma 4 Noroeste 0 -- -- 92
2018-01-22 20:00:00 6.8 0 Calma 7 Noroeste 0 -- -- 88
2018-01-22 19:00:00 9.1 5 Noroeste 8 Noroeste 0 -- -- 82
2018-01-22 18:00:00 11.9 7 Noroeste 12 Oeste 0 -- -- 73
2018-01-22 17:00:00 12.7 6 Oeste 11 Oeste 0 -- -- 70
2018-01-22 16:00:00 12.3 7 Oeste 13 Oeste 0 -- -- 72
2018-01-22 15:00:00 11 5 Noroeste 10 Noroeste 0 -- -- 78
2018-01-22 14:00:00 9.7 5 Sudoeste 15 Oeste 0 -- -- 80
2018-01-22 13:00:00 8 6 Oeste 11 Oeste 0 -- -- 86
2018-01-22 12:00:00 7.2 4 Noroeste 9 Oeste 0 -- -- 90
2018-01-22 11:00:00 6.7 3 Oeste 11 Sudoeste 0 -- -- 92
2018-01-22 10:00:00 6.4 3 Sur 10 Noroeste 0 -- -- 94
2018-01-22 09:00:00 6.3 3 Oeste 13 Oeste 0 -- -- 95
2018-01-22 08:00:00 6.5 6 Oeste 18 Oeste 0 -- -- 95
2018-01-22 07:00:00 6.6 7 Oeste 13 Oeste 0 -- -- 95
2018-01-22 06:00:00 6.7 6 Oeste 11 Oeste 0 -- -- 96
2018-01-22 05:00:00 6.6 4 Oeste 10 Oeste 0 -- -- 97
2018-01-22 04:00:00 6.6 4 Sudoeste 10 Sudoeste 0 -- -- 96
2018-01-22 03:00:00 6.4 5 Sudoeste 8 Sudoeste 0 -- -- 97
2018-01-22 02:00:00 5.5 3 Sudoeste 9 Sudoeste 0 -- -- 98
2018-01-22 01:00:00 5.1 4 Sur 11 Sur 0 -- -- 96
2018-01-22 00:00:00 4.9 6 Sur 12 Sur 0 -- -- 96